Time;durP1;ratioP1;P1;durP2;ratioP2;P2;SDS_P1;SDS_P2;PMS_P1;PMS_P2;Temp;Humidity;BMP_temperature;BMP_pressure;BME280_temperature;BME280_humidity;BME280_pressure;Samples;Min_cycle;Max_cycle;Signal;HPM_P1;HPM_P2
2021/10/20 00:00:53;;;;;;;5.80;4.20;;;6.50;91.20;;;;;;2081520;28;20193;-64
2021/10/20 00:01:54;;;;;;;6.10;3.90;;;6.50;91.10;;;;;;2081489;28;20687;-64
2021/10/20 00:02:55;;;;;;;6.73;4.40;;;6.40;91.20;;;;;;2081403;28;20185;-64
2021/10/20 00:03:56;;;;;;;6.60;3.80;;;6.40;91.10;;;;;;2081596;28;20173;-64
2021/10/20 00:04:57;;;;;;;7.13;3.67;;;6.40;91.20;;;;;;2081429;28;20185;-64
2021/10/20 00:05:58;;;;;;;5.32;3.70;;;6.30;91.30;;;;;;2081448;28;20189;-64
2021/10/20 00:06:59;;;;;;;4.73;3.80;;;6.30;91.40;;;;;;2081748;28;20357;-64
2021/10/20 00:08:03;;;;;;;5.47;3.60;;;6.20;91.70;;;;;;2081638;28;20264;-64
2021/10/20 00:09:04;;;;;;;6.53;3.95;;;6.20;92.00;;;;;;2081497;28;20181;-63
2021/10/20 00:10:06;;;;;;;4.20;3.42;;;6.20;91.80;;;;;;2080874;28;20734;-63
2021/10/20 00:11:07;;;;;;;6.28;4.07;;;6.20;92.00;;;;;;2080767;28;20264;-64
2021/10/20 00:12:08;;;;;;;7.65;3.60;;;6.20;92.00;;;;;;2081640;28;20199;-64
2021/10/20 00:13:09;;;;;;;5.20;3.43;;;6.20;92.20;;;;;;2081665;28;20200;-64
2021/10/20 00:14:09;;;;;;;4.13;3.37;;;6.20;92.30;;;;;;2081570;28;20178;-64
2021/10/20 00:15:14;;;;;;;4.43;3.13;;;6.20;92.40;;;;;;2081636;28;20204;-64
2021/10/20 00:16:15;;;;;;;5.68;3.33;;;6.20;92.40;;;;;;2080891;28;20229;-64
2021/10/20 00:17:16;;;;;;;7.80;3.80;;;6.20;92.40;;;;;;2080959;28;20204;-64
2021/10/20 00:18:18;;;;;;;5.43;3.53;;;6.20;92.50;;;;;;2081601;28;20232;-64
2021/10/20 00:19:18;;;;;;;5.05;3.53;;;6.20;92.70;;;;;;2081407;28;20203;-64
2021/10/20 00:20:22;;;;;;;6.17;3.33;;;6.20;92.80;;;;;;2081733;28;20708;-64
2021/10/20 00:21:25;;;;;;;8.68;3.42;;;6.10;92.80;;;;;;2078194;28;20719;-64
2021/10/20 00:22:26;;;;;;;6.18;3.42;;;6.10;92.80;;;;;;2072879;28;20712;-63
2021/10/20 00:23:27;;;;;;;8.20;3.43;;;6.20;92.70;;;;;;2073393;28;20182;-64
2021/10/20 00:24:27;;;;;;;3.67;2.90;;;6.20;92.50;;;;;;2073333;28;20208;-64
2021/10/20 00:25:28;;;;;;;4.13;3.10;;;6.20;92.40;;;;;;2073208;28;20668;-63
2021/10/20 00:26:29;;;;;;;4.72;3.05;;;6.20;92.50;;;;;;2073279;28;20202;-64
2021/10/20 00:27:30;;;;;;;4.17;3.17;;;6.20;92.60;;;;;;2073388;28;20178;-64
2021/10/20 00:28:31;;;;;;;4.33;3.10;;;6.20;92.90;;;;;;2073489;28;20277;-63
2021/10/20 00:29:31;;;;;;;5.67;3.20;;;6.20;93.20;;;;;;2073208;28;20596;-64
2021/10/20 00:30:33;;;;;;;4.33;3.13;;;6.20;92.90;;;;;;2073231;28;20188;-64
2021/10/20 00:31:33;;;;;;;3.67;2.72;;;6.20;92.80;;;;;;2072421;28;20293;-64
2021/10/20 00:32:35;;;;;;;3.90;2.70;;;6.10;92.90;;;;;;2072678;28;20237;-64
2021/10/20 00:33:35;;;;;;;4.20;2.92;;;6.20;93.10;;;;;;2073598;28;20199;-64
2021/10/20 00:34:36;;;;;;;4.00;3.20;;;6.10;93.00;;;;;;2073347;28;20564;-64
2021/10/20 00:35:37;;;;;;;4.43;2.93;;;6.10;93.00;;;;;;2073299;28;20185;-64
2021/10/20 00:36:37;;;;;;;4.40;3.07;;;6.00;93.10;;;;;;2073280;28;20220;-64
2021/10/20 00:37:38;;;;;;;3.93;2.80;;;6.00;93.20;;;;;;2073144;28;20265;-64
2021/10/20 00:38:39;;;;;;;4.60;3.17;;;6.00;93.40;;;;;;2073299;28;20206;-64
2021/10/20 00:39:40;;;;;;;4.87;3.27;;;6.00;93.50;;;;;;2073452;28;20728;-63
2021/10/20 00:40:40;;;;;;;3.87;2.77;;;6.00;93.40;;;;;;2073209;28;20683;-63
2021/10/20 00:41:41;;;;;;;3.53;3.00;;;6.10;93.40;;;;;;2073110;28;20195;-64
2021/10/20 00:42:44;;;;;;;4.80;3.27;;;6.00;93.40;;;;;;2073224;28;20700;-63
2021/10/20 00:43:45;;;;;;;5.65;3.10;;;6.00;93.70;;;;;;2072742;28;20181;-64
2021/10/20 00:44:55;;;;;;;5.70;3.23;;;6.00;93.40;;;;;;2072750;28;20197;-63
2021/10/20 00:45:56;;;;;;;5.32;2.75;;;5.90;93.50;;;;;;2072599;28;20291;-64
2021/10/20 00:46:56;;;;;;;3.60;2.67;;;5.90;93.70;;;;;;2064674;28;20179;-63
2021/10/20 00:47:57;;;;;;;4.50;2.90;;;5.90;93.40;;;;;;2072777;28;20204;-64
2021/10/20 00:48:59;;;;;;;3.85;3.00;;;6.00;93.40;;;;;;2073199;28;20184;-63
2021/10/20 00:49:59;;;;;;;5.45;3.30;;;6.00;93.50;;;;;;2073094;28;20188;-64
2021/10/20 00:51:00;;;;;;;4.00;3.17;;;6.00;93.40;;;;;;2073177;28;20212;-63
2021/10/20 00:52:01;;;;;;;7.28;3.35;;;6.00;93.40;;;;;;2073856;28;20234;-64
2021/10/20 00:53:02;;;;;;;4.67;3.30;;;6.00;93.10;;;;;;2074791;28;20533;-64
2021/10/20 00:54:03;;;;;;;5.75;2.90;;;6.00;93.10;;;;;;2074380;28;20195;-64
2021/10/20 00:55:06;;;;;;;4.43;3.10;;;6.00;93.10;;;;;;2074325;28;20568;-65
2021/10/20 00:56:07;;;;;;;4.75;2.92;;;6.00;93.20;;;;;;2074248;28;20224;-64
2021/10/20 00:57:09;;;;;;;5.70;2.87;;;6.00;93.20;;;;;;2074269;28;20243;-64
2021/10/20 00:58:10;;;;;;;4.05;2.88;;;5.90;93.20;;;;;;2074797;28;20185;-64
2021/10/20 00:59:11;;;;;;;7.60;3.03;;;6.00;93.40;;;;;;2074807;28;20189;-64
2021/10/20 01:00:13;;;;;;;5.43;2.97;;;6.00;93.40;;;;;;2074838;28;20182;-64
2021/10/20 01:01:14;;;;;;;4.15;2.90;;;6.00;92.90;;;;;;2074081;28;20244;-65
2021/10/20 01:02:14;;;;;;;7.33;2.90;;;6.10;92.80;;;;;;2074383;28;20679;-63
2021/10/20 01:03:15;;;;;;;3.70;2.60;;;6.10;92.70;;;;;;2074913;28;20188;-64
2021/10/20 01:04:16;;;;;;;3.73;2.60;;;6.10;92.70;;;;;;2074848;28;20181;-64
2021/10/20 01:05:17;;;;;;;4.63;2.60;;;6.00;92.90;;;;;;2074885;28;20181;-64
2021/10/20 01:06:17;;;;;;;3.03;2.57;;;6.00;92.90;;;;;;2074743;28;20236;-64
2021/10/20 01:07:21;;;;;;;3.00;2.20;;;6.10;92.70;;;;;;2074777;28;20251;-64
2021/10/20 01:08:22;;;;;;;3.72;2.90;;;6.10;92.70;;;;;;2074781;28;20186;-64
2021/10/20 01:09:23;;;;;;;5.80;3.13;;;6.10;92.60;;;;;;2074622;28;20185;-64
2021/10/20 01:10:24;;;;;;;4.25;2.92;;;6.10;92.60;;;;;;2074903;28;20247;-64
2021/10/20 01:11:25;;;;;;;3.08;2.50;;;6.10;92.60;;;;;;2074437;28;20189;-64
2021/10/20 01:12:27;;;;;;;3.80;2.73;;;6.10;92.70;;;;;;2074948;28;20189;-64
2021/10/20 01:13:29;;;;;;;4.43;2.78;;;6.00;92.90;;;;;;2074097;28;20616;-64
2021/10/20 01:14:30;;;;;;;4.80;2.55;;;6.00;92.90;;;;;;2074116;28;20542;-65
2021/10/20 01:15:31;;;;;;;3.13;2.50;;;6.00;92.90;;;;;;2074639;28;20239;-64
2021/10/20 01:16:32;;;;;;;3.20;2.37;;;6.00;92.90;;;;;;2074735;28;20182;-64
2021/10/20 01:17:32;;;;;;;4.40;2.33;;;6.10;92.90;;;;;;2074821;28;20185;-65
2021/10/20 01:18:34;;;;;;;3.03;2.50;;;6.10;92.70;;;;;;2074594;28;20509;-63
2021/10/20 01:19:36;;;;;;;4.57;2.88;;;6.10;92.70;;;;;;2074086;28;20242;-64
2021/10/20 01:20:38;;;;;;;4.30;2.42;;;6.00;92.80;;;;;;2074101;28;20197;-63
2021/10/20 01:21:40;;;;;;;3.20;2.50;;;6.00;92.90;;;;;;2074014;28;20183;-64
2021/10/20 01:22:42;;;;;;;5.65;2.47;;;6.00;92.90;;;;;;2074070;28;20304;-64
2021/10/20 01:23:45;;;;;;;3.08;2.35;;;6.00;92.90;;;;;;2074677;28;20185;-64
2021/10/20 01:24:46;;;;;;;3.70;2.42;;;6.00;92.80;;;;;;2073965;28;20185;-64
2021/10/20 01:25:47;;;;;;;5.70;2.43;;;6.00;92.80;;;;;;2065823;28;20197;-64
2021/10/20 01:26:53;;;;;;;2.78;1.92;;;6.10;92.70;;;;;;2073995;28;20172;-64
2021/10/20 01:27:54;;;;;;;4.38;2.33;;;6.10;92.90;;;;;;2074870;28;20170;-64
2021/10/20 01:28:55;;;;;;;4.63;2.43;;;6.10;92.80;;;;;;2074711;28;20190;-64
2021/10/20 01:29:58;;;;;;;3.40;2.50;;;6.00;92.70;;;;;;2074127;28;20216;-64
2021/10/20 01:30:59;;;;;;;4.25;2.63;;;6.00;93.00;;;;;;2066206;28;20269;-65
2021/10/20 01:32:05;;;;;;;2.87;2.00;;;6.00;93.00;;;;;;2073926;28;20691;-64
2021/10/20 01:33:06;;;;;;;3.03;2.30;;;6.00;92.90;;;;;;2074628;28;20636;-64
2021/10/20 01:34:06;;;;;;;3.07;2.40;;;6.00;93.00;;;;;;2073998;28;20270;-64
2021/10/20 01:35:08;;;;;;;3.20;2.27;;;6.00;92.90;;;;;;2074078;28;20192;-64
2021/10/20 01:36:10;;;;;;;4.57;2.10;;;6.00;92.70;;;;;;2074498;28;20688;-64
2021/10/20 01:37:12;;;;;;;3.88;2.40;;;6.00;92.70;;;;;;2073938;28;20200;-65
2021/10/20 01:38:13;;;;;;;3.72;2.20;;;6.00;92.50;;;;;;2066782;28;20197;-64
2021/10/20 01:39:13;;;;;;;3.33;2.60;;;6.00;92.60;;;;;;2081992;28;20187;-64
2021/10/20 01:40:14;;;;;;;4.07;2.63;;;5.90;92.70;;;;;;2082784;28;20172;-64
2021/10/20 01:41:15;;;;;;;4.57;2.50;;;5.90;92.70;;;;;;2082555;28;20181;-65
2021/10/20 01:42:15;;;;;;;2.63;2.37;;;5.90;92.80;;;;;;2082870;28;20721;-64
2021/10/20 01:43:16;;;;;;;3.97;2.50;;;5.80;93.00;;;;;;2082797;28;20215;-64
2021/10/20 01:44:17;;;;;;;4.73;2.30;;;5.80;93.20;;;;;;2082768;28;20203;-64
2021/10/20 01:45:18;;;;;;;3.13;2.40;;;5.80;93.20;;;;;;2082671;28;20208;-64
2021/10/20 01:46:21;;;;;;;3.95;2.47;;;5.80;93.20;;;;;;2082075;28;20200;-64
2021/10/20 01:47:22;;;;;;;3.70;2.42;;;5.80;93.40;;;;;;2082056;28;20271;-64
2021/10/20 01:48:22;;;;;;;3.88;2.35;;;5.80;93.40;;;;;;2082094;28;20703;-64
2021/10/20 01:49:24;;;;;;;2.73;2.20;;;5.80;93.50;;;;;;2082066;28;20247;-64
2021/10/20 01:50:24;;;;;;;3.42;2.33;;;5.70;93.50;;;;;;2082069;28;20636;-64
2021/10/20 01:51:26;;;;;;;3.83;2.50;;;5.70;93.50;;;;;;2081757;28;20188;-64
2021/10/20 01:52:27;;;;;;;6.15;2.30;;;5.70;93.70;;;;;;2081989;28;20216;-64
2021/10/20 01:53:27;;;;;;;5.23;2.70;;;5.70;93.90;;;;;;2081894;28;20192;-64
2021/10/20 01:54:28;;;;;;;2.90;2.00;;;5.70;93.90;;;;;;2081948;28;20199;-64
2021/10/20 01:55:29;;;;;;;4.27;2.37;;;5.70;93.80;;;;;;2081870;28;20270;-64
2021/10/20 01:56:29;;;;;;;5.63;2.00;;;5.70;93.80;;;;;;2082790;28;20226;-64
2021/10/20 01:57:30;;;;;;;5.57;2.20;;;5.70;93.90;;;;;;2081997;28;20214;-63
2021/10/20 01:58:31;;;;;;;3.37;2.47;;;5.70;93.90;;;;;;2082003;28;20732;-64
2021/10/20 01:59:32;;;;;;;2.80;1.90;;;5.70;94.00;;;;;;2082729;28;20211;-63
2021/10/20 02:00:33;;;;;;;3.03;2.43;;;5.70;94.10;;;;;;2082642;28;20180;-64
2021/10/20 02:01:33;;;;;;;5.63;2.53;;;5.70;93.90;;;;;;2082215;28;20600;-64
2021/10/20 02:02:34;;;;;;;3.77;2.30;;;5.70;93.80;;;;;;2082154;28;20190;-63
2021/10/20 02:03:40;;;;;;;2.97;2.10;;;5.80;93.70;;;;;;2082369;28;20188;-65
2021/10/20 02:04:41;;;;;;;3.13;1.92;;;5.80;93.60;;;;;;2081977;28;20176;-64
2021/10/20 02:05:41;;;;;;;2.63;1.83;;;5.80;93.60;;;;;;2073664;28;20197;-64
2021/10/20 02:06:43;;;;;;;2.93;2.10;;;5.70;93.70;;;;;;2082004;28;20174;-64
2021/10/20 02:07:44;;;;;;;2.47;1.88;;;5.80;93.80;;;;;;2082502;28;20670;-64
2021/10/20 02:08:46;;;;;;;2.17;1.97;;;5.80;93.60;;;;;;2082502;28;20191;-63
2021/10/20 02:09:46;;;;;;;3.03;1.90;;;5.80;93.40;;;;;;2082494;28;20188;-64
2021/10/20 02:10:48;;;;;;;2.27;1.93;;;5.80;93.20;;;;;;2082488;28;20215;-65
2021/10/20 02:11:48;;;;;;;3.05;2.20;;;5.80;93.10;;;;;;2082348;28;20189;-64
2021/10/20 02:12:49;;;;;;;2.80;2.10;;;5.80;93.10;;;;;;2082580;28;20666;-64
2021/10/20 02:13:50;;;;;;;4.47;1.87;;;5.80;93.10;;;;;;2082299;28;20177;-65
2021/10/20 02:14:50;;;;;;;3.57;2.20;;;5.90;93.00;;;;;;2082555;28;20190;-64
2021/10/20 02:15:52;;;;;;;2.73;1.90;;;5.90;93.10;;;;;;2082340;28;20199;-65
2021/10/20 02:16:53;;;;;;;2.88;1.98;;;5.80;93.20;;;;;;2082391;28;20184;-64
2021/10/20 02:17:54;;;;;;;2.80;2.10;;;5.80;93.10;;;;;;2082469;28;20180;-65
2021/10/20 02:18:54;;;;;;;4.53;1.90;;;5.80;93.20;;;;;;2082372;28;20282;-65
2021/10/20 02:19:55;;;;;;;2.73;2.10;;;5.80;93.10;;;;;;2082311;28;20168;-65
2021/10/20 02:20:56;;;;;;;6.00;2.30;;;5.90;92.90;;;;;;2079184;28;20235;-65
2021/10/20 02:21:59;;;;;;;3.13;1.67;;;5.90;93.20;;;;;;2074001;28;20189;-64
2021/10/20 02:23:00;;;;;;;1.85;1.67;;;5.80;93.30;;;;;;2073527;28;20177;-65
2021/10/20 02:24:00;;;;;;;2.57;1.90;;;5.80;93.40;;;;;;2065438;28;20188;-65
2021/10/20 02:25:02;;;;;;;2.30;1.70;;;5.80;93.40;;;;;;2073661;28;20197;-65
2021/10/20 02:26:03;;;;;;;1.95;1.73;;;5.80;93.40;;;;;;2074349;28;20452;-65
2021/10/20 02:27:04;;;;;;;3.10;2.00;;;5.80;93.40;;;;;;2074212;28;20723;-65
2021/10/20 02:28:05;;;;;;;2.70;1.80;;;5.80;93.60;;;;;;2074183;28;20174;-65
2021/10/20 02:29:05;;;;;;;2.10;1.70;;;5.80;94.10;;;;;;2073535;28;20185;-65
2021/10/20 02:30:08;;;;;;;2.43;1.73;;;5.80;93.50;;;;;;2073543;28;20176;-65
2021/10/20 02:31:08;;;;;;;2.75;1.80;;;5.70;93.50;;;;;;2073264;28;20281;-65
2021/10/20 02:32:09;;;;;;;2.10;1.90;;;5.80;93.40;;;;;;2065460;28;20182;-64
2021/10/20 02:33:10;;;;;;;3.63;1.87;;;5.80;93.40;;;;;;2073524;28;20626;-65
2021/10/20 02:34:11;;;;;;;5.27;2.07;;;5.70;93.30;;;;;;2072506;28;20180;-65
2021/10/20 02:35:12;;;;;;;3.22;1.80;;;5.80;93.50;;;;;;2078438;28;20201;-65
2021/10/20 02:36:13;;;;;;;3.03;1.98;;;5.70;93.70;;;;;;2082050;28;20557;-65
2021/10/20 02:37:14;;;;;;;2.80;2.17;;;5.70;94.00;;;;;;2082242;28;20184;-65
2021/10/20 02:38:15;;;;;;;2.25;1.77;;;5.70;94.00;;;;;;2081493;28;20208;-64
2021/10/20 02:39:16;;;;;;;2.50;2.03;;;5.70;93.80;;;;;;2081761;28;20188;-65
2021/10/20 02:40:17;;;;;;;3.57;1.87;;;5.70;93.70;;;;;;2082306;28;20645;-65
2021/10/20 02:41:17;;;;;;;2.50;1.80;;;5.70;93.50;;;;;;2082166;28;20645;-64
2021/10/20 02:42:18;;;;;;;2.93;1.83;;;5.70;93.30;;;;;;2082353;28;20176;-65
2021/10/20 02:43:19;;;;;;;2.83;2.17;;;5.80;93.30;;;;;;2082233;28;20176;-65
2021/10/20 02:44:19;;;;;;;2.47;1.80;;;5.70;93.00;;;;;;2082272;28;20176;-64
2021/10/20 02:45:21;;;;;;;3.10;2.10;;;5.70;93.00;;;;;;2082269;28;20214;-64
2021/10/20 02:46:21;;;;;;;5.70;1.90;;;5.70;93.10;;;;;;2082199;28;20200;-64
2021/10/20 02:47:22;;;;;;;4.10;2.13;;;5.70;93.50;;;;;;2082115;28;20660;-65
2021/10/20 02:48:23;;;;;;;3.53;2.20;;;5.60;93.80;;;;;;2082370;28;20184;-65
2021/10/20 02:49:24;;;;;;;1.93;1.70;;;5.50;93.80;;;;;;2082251;28;20184;-64
2021/10/20 02:50:28;;;;;;;2.28;1.98;;;5.50;93.90;;;;;;2082133;28;20211;-65
2021/10/20 02:51:30;;;;;;;4.03;2.15;;;5.50;93.80;;;;;;2081911;28;20192;-65
2021/10/20 02:52:30;;;;;;;3.97;2.00;;;5.50;93.80;;;;;;2082142;28;20581;-65
2021/10/20 02:53:31;;;;;;;4.93;2.10;;;5.40;93.90;;;;;;2082178;28;20188;-65
2021/10/20 02:54:32;;;;;;;5.00;2.03;;;5.50;94.00;;;;;;2082197;28;20180;-65
2021/10/20 02:55:32;;;;;;;6.93;2.40;;;5.40;94.30;;;;;;2082108;28;20682;-65
2021/10/20 02:56:33;;;;;;;3.27;1.90;;;5.40;94.40;;;;;;2082185;28;20181;-65
2021/10/20 02:57:34;;;;;;;3.33;2.00;;;5.40;94.10;;;;;;2082118;28;20219;-64
2021/10/20 02:58:35;;;;;;;2.67;1.90;;;5.40;94.20;;;;;;2082057;28;20216;-64
2021/10/20 02:59:36;;;;;;;4.10;1.80;;;5.40;94.10;;;;;;2081997;28;20426;-64
2021/10/20 03:00:36;;;;;;;4.50;2.20;;;5.40;94.20;;;;;;2082142;28;20686;-65
2021/10/20 03:01:37;;;;;;;3.27;2.20;;;5.40;94.00;;;;;;2081699;28;20191;-65
2021/10/20 03:02:38;;;;;;;2.33;2.00;;;5.40;93.90;;;;;;2082059;28;20208;-64
2021/10/20 03:03:39;;;;;;;3.17;2.27;;;5.40;94.10;;;;;;2081962;28;20192;-64
2021/10/20 03:04:39;;;;;;;3.10;1.80;;;5.40;94.30;;;;;;2082087;28;20183;-65
2021/10/20 03:05:40;;;;;;;2.30;1.70;;;5.30;94.50;;;;;;2081998;28;20177;-64
2021/10/20 03:06:41;;;;;;;3.50;2.00;;;5.30;94.50;;;;;;2081909;28;20281;-65
2021/10/20 03:07:48;;;;;;;3.47;2.27;;;5.40;94.40;;;;;;2081929;28;20173;-65
2021/10/20 03:08:49;;;;;;;1.92;1.63;;;5.40;94.20;;;;;;2082074;28;20184;-65
2021/10/20 03:09:50;;;;;;;3.47;2.03;;;5.30;94.20;;;;;;2081928;28;20272;-64
2021/10/20 03:10:51;;;;;;;2.23;2.03;;;5.30;94.10;;;;;;2081296;28;20215;-65
2021/10/20 03:11:51;;;;;;;2.23;2.03;;;5.30;94.20;;;;;;2081185;28;20499;-65
2021/10/20 03:12:52;;;;;;;3.03;2.13;;;5.30;94.30;;;;;;2082016;28;20176;-64
2021/10/20 03:13:53;;;;;;;3.10;2.43;;;5.30;94.40;;;;;;2081877;28;20176;-64
2021/10/20 03:14:54;;;;;;;5.10;2.10;;;5.30;94.60;;;;;;2081109;28;20321;-64
2021/10/20 03:15:55;;;;;;;2.13;1.70;;;5.20;94.90;;;;;;2081293;28;20212;-64
2021/10/20 03:16:56;;;;;;;2.53;2.00;;;5.20;95.00;;;;;;2081459;28;20566;-65
2021/10/20 03:17:56;;;;;;;3.30;2.07;;;5.20;94.90;;;;;;2081896;28;20231;-64
2021/10/20 03:18:57;;;;;;;2.73;2.13;;;5.20;94.80;;;;;;2081925;28;20212;-64
2021/10/20 03:19:58;;;;;;;3.60;2.20;;;5.20;94.80;;;;;;2082041;28;20250;-65
2021/10/20 03:20:58;;;;;;;3.80;2.30;;;5.20;94.80;;;;;;2081729;28;20234;-64
2021/10/20 03:21:59;;;;;;;5.20;2.33;;;5.20;95.00;;;;;;2081666;28;20216;-65
2021/10/20 03:23:00;;;;;;;5.30;2.40;;;5.20;94.90;;;;;;2081825;28;20372;-65
2021/10/20 03:24:00;;;;;;;4.70;2.47;;;5.20;94.80;;;;;;2081164;28;20186;-64
2021/10/20 03:25:01;;;;;;;3.77;2.13;;;5.30;94.80;;;;;;2081312;28;20180;-64
2021/10/20 03:26:02;;;;;;;3.43;2.30;;;5.30;94.60;;;;;;2081867;28;20199;-64
2021/10/20 03:27:03;;;;;;;2.97;1.90;;;5.30;94.50;;;;;;2081828;28;20650;-65
2021/10/20 03:28:04;;;;;;;3.15;2.15;;;5.30;94.50;;;;;;2081825;28;20713;-65
2021/10/20 03:29:04;;;;;;;3.93;2.00;;;5.30;94.50;;;;;;2081981;28;20224;-64
2021/10/20 03:30:05;;;;;;;3.13;2.03;;;5.30;94.50;;;;;;2081916;28;20183;-65
2021/10/20 03:31:06;;;;;;;3.85;2.00;;;5.30;94.50;;;;;;2081722;28;20287;-65
2021/10/20 03:32:07;;;;;;;2.37;1.80;;;5.30;94.70;;;;;;2081848;28;20204;-64
2021/10/20 03:33:07;;;;;;;2.73;2.00;;;5.20;94.90;;;;;;2081822;28;20180;-65
2021/10/20 03:34:08;;;;;;;2.63;1.73;;;5.20;94.80;;;;;;2082061;28;20185;-64
2021/10/20 03:35:10;;;;;;;3.23;2.00;;;5.20;94.70;;;;;;2081864;28;20624;-65
2021/10/20 03:36:11;;;;;;;2.50;2.00;;;5.20;94.80;;;;;;2081732;28;20207;-64
2021/10/20 03:37:12;;;;;;;3.83;1.98;;;5.20;94.80;;;;;;2081946;28;20554;-65
2021/10/20 03:38:13;;;;;;;2.73;1.90;;;5.30;94.80;;;;;;2081710;28;20192;-64
2021/10/20 03:39:14;;;;;;;2.72;1.75;;;5.20;94.90;;;;;;2080747;28;20180;-64
2021/10/20 03:40:15;;;;;;;2.53;1.93;;;5.20;94.80;;;;;;2081223;28;20187;-64
2021/10/20 03:41:16;;;;;;;2.83;2.17;;;5.20;94.80;;;;;;2081512;28;20419;-64
2021/10/20 03:42:17;;;;;;;2.57;2.00;;;5.20;94.80;;;;;;2081710;28;20177;-65
2021/10/20 03:43:17;;;;;;;2.80;2.00;;;5.20;94.70;;;;;;2081631;28;20326;-64
2021/10/20 03:44:18;;;;;;;5.33;4.20;;;5.30;94.50;;;;;;2081855;28;20268;-65
2021/10/20 03:45:19;;;;;;;4.03;2.80;;;5.30;94.50;;;;;;2081736;28;20303;-63
2021/10/20 03:46:19;;;;;;;5.60;4.30;;;5.30;94.40;;;;;;2081627;28;20204;-64
2021/10/20 03:47:20;;;;;;;8.77;6.03;;;5.30;94.50;;;;;;2081589;28;20176;-64
2021/10/20 03:48:21;;;;;;;15.23;10.00;;;5.30;94.60;;;;;;2081551;28;20178;-64
2021/10/20 03:49:22;;;;;;;11.10;5.13;;;5.30;94.80;;;;;;2081536;28;20182;-65
2021/10/20 03:50:23;;;;;;;10.20;5.73;;;5.30;94.70;;;;;;2081637;28;20559;-64
2021/10/20 03:51:24;;;;;;;5.07;3.77;;;5.30;94.50;;;;;;2080720;28;20177;-64
2021/10/20 03:52:24;;;;;;;6.33;4.53;;;5.30;94.50;;;;;;2081109;28;20183;-64
2021/10/20 03:53:25;;;;;;;4.97;3.60;;;5.30;94.40;;;;;;2081721;28;20189;-65
2021/10/20 03:54:26;;;;;;;3.43;2.50;;;5.30;94.40;;;;;;2081657;28;20670;-64
2021/10/20 03:55:27;;;;;;;3.50;2.53;;;5.30;94.50;;;;;;2081432;28;20208;-64
2021/10/20 03:56:27;;;;;;;4.33;2.37;;;5.30;94.50;;;;;;2081624;28;20200;-64
2021/10/20 03:57:34;;;;;;;3.13;2.07;;;5.30;94.60;;;;;;2081593;28;20599;-64
2021/10/20 03:58:35;;;;;;;3.05;2.65;;;5.30;94.70;;;;;;2081682;28;20205;-64
2021/10/20 03:59:36;;;;;;;3.47;2.70;;;5.30;94.90;;;;;;2081674;28;20192;-64
2021/10/20 04:00:37;;;;;;;3.42;2.25;;;5.30;94.80;;;;;;2081588;28;20181;-64
2021/10/20 04:01:37;;;;;;;3.40;2.50;;;5.30;94.80;;;;;;2081317;28;20273;-65
2021/10/20 04:02:44;;;;;;;3.87;2.53;;;5.30;94.80;;;;;;2080944;28;20676;-65
2021/10/20 04:03:45;;;;;;;3.08;2.30;;;5.30;94.70;;;;;;2081101;28;20168;-64
2021/10/20 04:04:45;;;;;;;3.17;2.10;;;5.30;94.60;;;;;;2081615;28;20179;-63
2021/10/20 04:05:46;;;;;;;2.80;2.27;;;5.30;94.50;;;;;;2081261;28;20764;-63
2021/10/20 04:06:47;;;;;;;3.63;2.10;;;5.40;94.30;;;;;;2081458;28;20202;-64
2021/10/20 04:07:50;;;;;;;3.33;1.90;;;5.40;94.20;;;;;;2080767;28;20172;-63
2021/10/20 04:08:51;;;;;;;3.83;2.10;;;5.40;94.00;;;;;;2080918;28;20473;-64
2021/10/20 04:09:51;;;;;;;2.30;1.90;;;5.40;94.10;;;;;;2081601;28;20238;-63
2021/10/20 04:10:52;;;;;;;2.20;1.93;;;5.40;94.10;;;;;;2081322;28;20176;-66
2021/10/20 04:11:53;;;;;;;5.27;1.90;;;5.40;94.10;;;;;;2081435;28;20639;-64
2021/10/20 04:12:54;;;;;;;4.90;2.00;;;5.40;94.10;;;;;;2081381;28;20231;-63
2021/10/20 04:13:55;;;;;;;5.07;2.10;;;5.40;94.10;;;;;;2080949;28;20190;-64
2021/10/20 04:14:56;;;;;;;3.87;2.27;;;5.40;94.00;;;;;;2080740;28;20267;-64
2021/10/20 04:15:57;;;;;;;3.33;2.60;;;5.30;93.80;;;;;;2081388;28;20569;-64
2021/10/20 04:16:58;;;;;;;4.77;2.40;;;5.30;93.80;;;;;;2081378;28;20212;-64
2021/10/20 04:17:59;;;;;;;2.47;1.90;;;5.30;93.80;;;;;;2081389;28;20274;-64
2021/10/20 04:18:59;;;;;;;3.00;2.37;;;5.30;93.90;;;;;;2081266;28;20212;-64
2021/10/20 04:20:00;;;;;;;6.00;2.20;;;5.30;94.10;;;;;;2081175;28;20211;-63
2021/10/20 04:21:01;;;;;;;2.70;2.20;;;5.20;94.20;;;;;;2080998;28;20253;-64
2021/10/20 04:22:02;;;;;;;4.73;2.30;;;5.30;94.20;;;;;;2081289;28;20204;-64
2021/10/20 04:23:02;;;;;;;2.50;2.03;;;5.30;94.30;;;;;;2081301;28;20548;-64
2021/10/20 04:24:03;;;;;;;4.33;2.10;;;5.30;94.40;;;;;;2081304;28;20226;-64
2021/10/20 04:25:06;;;;;;;2.97;2.45;;;5.20;94.50;;;;;;2081215;28;20194;-64
2021/10/20 04:26:07;;;;;;;2.33;2.10;;;5.30;94.50;;;;;;2078782;28;20205;-65
2021/10/20 04:27:08;;;;;;;3.00;2.03;;;5.30;94.40;;;;;;2072352;28;20182;-64
2021/10/20 04:28:09;;;;;;;3.43;2.00;;;5.30;94.50;;;;;;2073052;28;20187;-64
2021/10/20 04:29:10;;;;;;;2.90;2.22;;;5.30;94.30;;;;;;2073004;28;20183;-63
2021/10/20 04:30:13;;;;;;;2.93;1.97;;;5.30;94.30;;;;;;2073072;28;20185;-63
2021/10/20 04:31:14;;;;;;;2.72;1.90;;;5.30;94.50;;;;;;2072766;28;20185;-64
2021/10/20 04:32:15;;;;;;;5.27;2.30;;;5.20;94.40;;;;;;2072985;28;20189;-64
2021/10/20 04:33:15;;;;;;;3.83;2.10;;;5.20;94.30;;;;;;2073098;28;20423;-64
2021/10/20 04:34:16;;;;;;;2.77;1.80;;;5.20;94.20;;;;;;2073143;28;20189;-64
2021/10/20 04:35:22;;;;;;;4.73;2.20;;;5.20;94.10;;;;;;2072992;28;20180;-64
2021/10/20 04:36:23;;;;;;;4.60;2.10;;;5.20;94.00;;;;;;2073136;28;20538;-64
2021/10/20 04:37:25;;;;;;;3.30;2.07;;;5.20;94.00;;;;;;2073010;28;20188;-64
2021/10/20 04:38:25;;;;;;;3.25;2.17;;;5.20;94.00;;;;;;2072887;28;20251;-64
2021/10/20 04:39:26;;;;;;;2.57;2.00;;;5.20;94.20;;;;;;2072980;28;20216;-63
2021/10/20 04:40:27;;;;;;;2.90;2.27;;;5.10;94.50;;;;;;2073050;28;20219;-64
2021/10/20 04:41:28;;;;;;;4.68;1.95;;;5.10;94.70;;;;;;2072674;28;20183;-64
2021/10/20 04:42:30;;;;;;;2.97;2.00;;;5.10;94.60;;;;;;2073015;28;20548;-64
2021/10/20 04:43:31;;;;;;;2.38;2.17;;;5.10;94.70;;;;;;2072227;28;20207;-64
2021/10/20 04:44:31;;;;;;;2.93;2.17;;;5.10;94.70;;;;;;2072394;28;20188;-63
2021/10/20 04:45:33;;;;;;;2.50;2.20;;;5.10;94.70;;;;;;2072895;28;20184;-63
2021/10/20 04:46:33;;;;;;;3.22;2.13;;;5.10;94.80;;;;;;2072998;28;20559;-64
2021/10/20 04:47:34;;;;;;;2.73;2.07;;;5.10;94.50;;;;;;2073025;28;20267;-64
2021/10/20 04:48:35;;;;;;;2.67;1.97;;;5.10;94.50;;;;;;2072923;28;20599;-63
2021/10/20 04:49:35;;;;;;;3.77;2.10;;;5.10;94.60;;;;;;2072351;28;20274;-64
2021/10/20 04:50:36;;;;;;;2.90;2.07;;;5.10;94.60;;;;;;2072340;28;20196;-63
2021/10/20 04:51:37;;;;;;;2.63;2.20;;;5.10;94.50;;;;;;2072126;28;20177;-64
2021/10/20 04:52:38;;;;;;;3.90;2.27;;;5.20;94.50;;;;;;2072515;28;20283;-64
2021/10/20 04:53:38;;;;;;;4.07;2.63;;;5.10;94.40;;;;;;2072309;28;20184;-64
2021/10/20 04:54:39;;;;;;;3.80;1.90;;;5.10;94.50;;;;;;2072545;28;20687;-64
2021/10/20 04:55:40;;;;;;;3.20;2.42;;;5.10;94.60;;;;;;2072926;28;20793;-64
2021/10/20 04:56:41;;;;;;;4.97;2.03;;;5.10;94.50;;;;;;2073015;28;20185;-63
2021/10/20 04:57:51;;;;;;;3.23;2.23;;;5.10;94.50;;;;;;2072989;28;20188;-65
2021/10/20 04:58:52;;;;;;;3.22;2.08;;;5.10;94.50;;;;;;2072893;28;20203;-64
2021/10/20 04:59:52;;;;;;;2.77;2.03;;;5.10;94.50;;;;;;2072953;28;20176;-64
2021/10/20 05:00:53;;;;;;;3.90;2.40;;;5.10;94.30;;;;;;2072941;28;20222;-64
2021/10/20 05:01:54;;;;;;;3.93;2.80;;;5.10;94.30;;;;;;2072814;28;20640;-64
2021/10/20 05:02:54;;;;;;;4.70;2.80;;;5.10;94.30;;;;;;2073198;28;20192;-64
2021/10/20 05:03:55;;;;;;;4.17;2.60;;;5.00;94.70;;;;;;2072952;28;20184;-64
2021/10/20 05:04:56;;;;;;;5.03;2.87;;;5.00;94.80;;;;;;2072983;28;20174;-64
2021/10/20 05:05:56;;;;;;;3.33;2.80;;;5.00;94.90;;;;;;2073053;28;20192;-64
2021/10/20 05:06:58;;;;;;;3.67;2.80;;;5.00;94.90;;;;;;2072315;28;20666;-64
2021/10/20 05:07:59;;;;;;;4.38;2.92;;;5.00;94.90;;;;;;2064381;28;20177;-64
2021/10/20 05:09:00;;;;;;;3.42;2.50;;;5.00;95.00;;;;;;2064272;28;20199;-64
2021/10/20 05:10:00;;;;;;;4.87;2.70;;;4.90;95.00;;;;;;2072342;28;20243;-64
2021/10/20 05:11:01;;;;;;;4.13;3.03;;;4.90;95.10;;;;;;2072784;28;20187;-63
2021/10/20 05:12:02;;;;;;;4.70;2.50;;;5.00;95.00;;;;;;2073073;28;20185;-64
2021/10/20 05:13:03;;;;;;;5.00;2.67;;;5.00;94.90;;;;;;2072983;28;20189;-64
2021/10/20 05:14:03;;;;;;;4.37;2.60;;;5.00;94.90;;;;;;2073010;28;20195;-64
2021/10/20 05:15:04;;;;;;;2.77;2.40;;;4.90;95.00;;;;;;2072911;28;20193;-64
2021/10/20 05:16:05;;;;;;;5.13;2.50;;;4.90;95.20;;;;;;2072874;28;20254;-63
2021/10/20 05:17:05;;;;;;;3.70;2.67;;;4.90;95.20;;;;;;2072922;28;20177;-64
2021/10/20 05:18:06;;;;;;;3.13;2.03;;;4.90;95.20;;;;;;2072998;28;20192;-64
2021/10/20 05:19:07;;;;;;;3.70;2.30;;;4.90;95.20;;;;;;2072779;28;20211;-64
2021/10/20 05:20:10;;;;;;;3.22;2.45;;;4.90;95.10;;;;;;2072906;28;20551;-64
2021/10/20 05:21:11;;;;;;;3.35;2.60;;;4.90;95.10;;;;;;2072590;28;20220;-64
2021/10/20 05:22:12;;;;;;;6.60;2.60;;;4.90;95.20;;;;;;2072973;28;20203;-64
2021/10/20 05:23:12;;;;;;;3.87;2.43;;;4.90;95.10;;;;;;2073014;28;20189;-64